Time;durP1;ratioP1;P1;durP2;ratioP2;P2;SDS_P1;SDS_P2;PMS_P1;PMS_P2;Temp;Humidity;BMP_temperature;BMP_pressure;BME280_temperature;BME280_humidity;BME280_pressure;Samples;Min_cycle;Max_cycle;Signal;HPM_P1;HPM_P2
2023/01/06 00:00:26;;;;;;;30.10;8.05;;;;;;;7.41;100.00;101293.06;5979135;28;20490;-75
2023/01/06 00:03:21;;;;;;;29.60;8.80;;;;;;;7.47;100.00;101303.19;5985068;28;20239;-75
2023/01/06 00:06:18;;;;;;;29.93;8.60;;;;;;;7.33;100.00;101275.16;5980210;29;20471;-75
2023/01/06 00:09:13;;;;;;;25.70;7.43;;;;;;;7.35;100.00;101277.66;5972989;29;20490;-75
2023/01/06 00:12:08;;;;;;;29.37;7.57;;;;;;;7.36;100.00;101263.53;5978459;29;20039;-76
2023/01/06 00:15:04;;;;;;;21.07;7.23;;;;;;;7.45;100.00;101279.53;5979488;28;20118;-76
2023/01/06 00:17:59;;;;;;;19.88;7.25;;;;;;;7.40;100.00;101272.91;5984342;28;20023;-75
2023/01/06 00:20:57;;;;;;;31.00;8.47;;;;;;;7.48;100.00;101278.47;5983135;28;20035;-76
2023/01/06 00:23:53;;;;;;;25.52;8.10;;;;;;;7.49;100.00;101278.38;5978545;29;20086;-76
2023/01/06 00:26:48;;;;;;;26.85;7.63;;;;;;;7.52;100.00;101274.66;5979042;29;20071;-76
2023/01/06 00:29:43;;;;;;;27.73;7.37;;;;;;;7.46;100.00;101260.13;5979166;29;20047;-75
2023/01/06 00:32:39;;;;;;;18.93;6.17;;;;;;;7.44;100.00;101250.63;5978048;28;20028;-75
2023/01/06 00:35:34;;;;;;;19.30;6.70;;;;;;;7.48;100.00;101263.47;5984569;28;20574;-75
2023/01/06 00:38:29;;;;;;;24.27;8.33;;;;;;;7.47;100.00;101271.50;5978984;28;20113;-76
2023/01/06 00:44:39;;;;;;;22.20;7.13;;;;;;;7.41;100.00;101253.50;5978619;29;20035;-77
2023/01/06 00:47:34;;;;;;;24.63;6.75;;;;;;;7.42;100.00;101253.38;5978322;28;20379;-76
2023/01/06 00:50:29;;;;;;;16.13;6.10;;;;;;;7.47;100.00;101260.97;5985678;28;20419;-76
2023/01/06 00:53:25;;;;;;;25.60;6.87;;;;;;;7.47;100.00;101259.16;5986067;28;20077;-75
2023/01/06 00:56:20;;;;;;;25.17;7.10;;;;;;;7.44;100.00;101246.19;5982366;29;20035;-75
2023/01/06 00:59:21;;;;;;;16.47;6.53;;;;;;;7.38;100.00;101240.53;5980957;28;20513;-76
2023/01/06 01:02:16;;;;;;;19.90;6.43;;;;;;;7.37;100.00;101249.38;5982707;29;20386;-77
2023/01/06 01:05:12;;;;;;;18.47;6.77;;;;;;;7.38;100.00;101240.53;5982936;29;20078;-76
2023/01/06 01:08:07;;;;;;;20.33;7.13;;;;;;;7.38;100.00;101245.78;5983468;28;20049;-75
2023/01/06 01:11:08;;;;;;;19.43;8.50;;;;;;;7.32;100.00;101240.97;5991371;28;20045;-76
2023/01/06 01:14:03;;;;;;;19.55;7.28;;;;;;;7.24;100.00;101227.50;5983711;28;20513;-76
2023/01/06 01:16:58;;;;;;;25.67;7.23;;;;;;;7.24;100.00;101233.63;5983287;29;20031;-76
2023/01/06 01:19:55;;;;;;;24.17;7.30;;;;;;;7.30;100.00;101237.59;5983932;28;20030;-76
2023/01/06 01:22:50;;;;;;;24.48;6.68;;;;;;;7.26;100.00;101236.13;5983151;29;20027;-75
2023/01/06 01:25:45;;;;;;;22.37;7.57;;;;;;;7.28;100.00;101228.97;5990823;28;20118;-75
2023/01/06 01:28:41;;;;;;;25.60;7.37;;;;;;;7.28;100.00;101239.53;5986146;29;20031;-76
2023/01/06 01:31:36;;;;;;;18.58;6.60;;;;;;;7.32;100.00;101235.69;5988452;29;20035;-77
2023/01/06 01:34:32;;;;;;;17.27;6.10;;;;;;;7.34;100.00;101236.44;5986819;28;20031;-74
2023/01/06 01:37:27;;;;;;;23.10;5.95;;;;;;;7.43;100.00;101247.13;5985379;29;20533;-76
2023/01/06 01:40:22;;;;;;;21.17;5.63;;;;;;;7.44;100.00;101245.34;5987122;28;20565;-77
2023/01/06 01:43:18;;;;;;;17.43;6.27;;;;;;;7.43;100.00;101248.94;5982780;28;20278;-75
2023/01/06 01:46:17;;;;;;;19.00;5.97;;;;;;;7.45;100.00;101247.00;5990963;28;20486;-75
2023/01/06 01:49:22;;;;;;;17.05;6.32;;;;;;;7.48;100.00;101239.72;5994171;28;20275;-76
2023/01/06 01:52:17;;;;;;;16.00;5.43;;;;;;;7.44;100.00;101237.44;5964530;29;20035;-75
2023/01/06 01:55:13;;;;;;;18.10;5.82;;;;;;;7.48;100.00;101225.69;5964448;28;20118;-75
2023/01/06 01:58:13;;;;;;;20.58;6.05;;;;;;;7.51;100.00;101228.09;5988382;28;20034;-76
2023/01/06 02:01:09;;;;;;;23.30;5.55;;;;;;;7.53;100.00;101234.09;5989502;28;20035;-75
2023/01/06 02:04:05;;;;;;;24.50;6.40;;;;;;;7.53;100.00;101221.75;5964412;29;20118;-76
2023/01/06 02:07:01;;;;;;;19.67;5.70;;;;;;;7.56;100.00;101234.72;5981652;29;20401;-76
2023/01/06 02:10:17;;;;;;;17.08;7.07;;;;;;;7.56;100.00;101218.88;5964475;28;20487;-76
2023/01/06 02:13:13;;;;;;;20.10;5.97;;;;;;;7.59;100.00;101213.38;5980988;29;20031;-74
2023/01/06 02:16:50;;;;;;;19.73;5.93;;;;;;;7.67;100.00;101212.81;5981736;28;20035;-75
2023/01/06 02:20:15;;;;;;;16.48;5.10;;;;;;;7.72;100.00;101213.28;5959699;28;20098;-76
2023/01/06 02:23:23;;;;;;;13.93;4.95;;;;;;;7.77;100.00;101211.19;5981280;29;20043;-77
2023/01/06 02:26:33;;;;;;;12.15;4.40;;;;;;;7.68;100.00;101196.03;5981508;28;20062;-74
2023/01/06 02:29:53;;;;;;;14.55;4.32;;;;;;;7.74;100.00;101195.56;5981679;29;20130;-76
2023/01/06 02:33:04;;;;;;;14.15;4.82;;;;;;;7.68;100.00;101185.47;5969315;28;20028;-76
2023/01/06 02:36:10;;;;;;;13.30;5.18;;;;;;;7.81;100.00;101207.34;5968934;29;20043;-75
2023/01/06 02:39:24;;;;;;;22.98;5.05;;;;;;;7.81;100.00;101204.69;5983145;28;20027;-76
2023/01/06 02:42:32;;;;;;;17.75;5.45;;;;;;;7.83;100.00;101184.28;5963511;29;20479;-76
2023/01/06 02:45:47;;;;;;;15.35;4.88;;;;;;;7.67;100.00;101146.81;5973577;29;20054;-76
2023/01/06 02:48:54;;;;;;;13.45;4.80;;;;;;;7.77;100.00;101171.56;5964650;28;20035;-75
2023/01/06 02:51:54;;;;;;;13.52;4.18;;;;;;;7.72;100.00;101160.50;5969836;29;20046;-76
2023/01/06 02:55:10;;;;;;;8.98;3.60;;;;;;;7.82;100.00;101166.78;5964508;29;20414;-75
2023/01/06 02:58:21;;;;;;;13.63;3.92;;;;;;;7.72;100.00;101139.38;5964182;29;20035;-76
2023/01/06 03:01:24;;;;;;;12.82;4.25;;;;;;;7.72;100.00;101134.09;5983305;29;20090;-75
2023/01/06 03:04:25;;;;;;;9.98;3.55;;;;;;;7.91;100.00;101160.78;5965103;29;20123;-76
2023/01/06 03:07:21;;;;;;;8.50;3.70;;;;;;;7.93;100.00;101161.53;5970333;28;20043;-76
2023/01/06 03:10:19;;;;;;;11.57;3.35;;;;;;;7.92;100.00;101158.97;5949889;29;20372;-76
2023/01/06 03:13:21;;;;;;;9.60;3.30;;;;;;;7.93;100.00;101152.75;5962687;29;20101;-76
2023/01/06 03:16:16;;;;;;;9.80;2.92;;;;;;;7.94;100.00;101149.97;5984104;29;20031;-77
2023/01/06 03:19:12;;;;;;;8.40;3.17;;;;;;;7.87;100.00;101122.38;5983620;29;20039;-76
2023/01/06 03:22:08;;;;;;;10.88;3.35;;;;;;;7.99;100.00;101137.25;5954053;28;20035;-76
2023/01/06 03:25:05;;;;;;;9.70;2.90;;;;;;;8.03;100.00;101137.88;5984625;28;20049;-76
2023/01/06 03:28:00;;;;;;;9.77;2.50;;;;;;;8.04;100.00;101137.78;5986021;28;20030;-76
2023/01/06 03:31:49;;;;;;;6.97;2.90;;;;;;;8.13;100.00;101142.31;5980370;28;20039;-78
2023/01/06 03:34:50;;;;;;;7.75;2.45;;;;;;;8.18;100.00;101134.88;5934131;29;20028;-75
2023/01/06 03:38:33;;;;;;;7.28;3.00;;;;;;;8.18;100.00;101126.13;5984193;28;20031;-76
2023/01/06 03:45:11;;;;;;;6.53;2.25;;;;;;;8.23;100.00;101113.41;5970537;28;20051;-76
2023/01/06 03:48:19;;;;;;;7.38;2.63;;;;;;;8.28;100.00;101112.09;5985217;29;20041;-76
2023/01/06 03:51:29;;;;;;;7.40;2.40;;;;;;;8.31;100.00;101121.59;5981984;28;20036;-76
2023/01/06 03:54:40;;;;;;;6.88;1.88;;;;;;;8.27;100.00;101110.41;5986164;28;20502;-77
2023/01/06 03:57:38;;;;;;;7.40;2.17;;;;;;;8.27;100.00;101115.69;5983554;28;20035;-78
2023/01/06 04:00:36;;;;;;;7.90;2.17;;;;;;;8.25;100.00;101100.91;5966479;29;20037;-77
2023/01/06 04:03:31;;;;;;;5.15;2.15;;;;;;;8.29;100.00;101113.75;5978486;28;20041;-78
2023/01/06 04:06:27;;;;;;;11.17;2.83;;;;;;;8.30;100.00;101114.59;5965023;29;20027;-77
2023/01/06 04:09:22;;;;;;;9.67;3.60;;;;;;;8.23;100.00;101095.75;5981581;29;20279;-76
2023/01/06 04:15:31;;;;;;;;;;;;;;;8.30;100.00;101098.75;5981397;28;20271;-77
2023/01/06 04:18:26;;;;;;;8.20;2.97;;;;;;;8.29;100.00;101076.78;5988375;28;19911;-76
2023/01/06 04:21:22;;;;;;;7.93;2.80;;;;;;;8.25;100.00;101085.88;5981495;28;20518;-75
2023/01/06 04:24:17;;;;;;;6.70;3.00;;;;;;;8.31;100.00;101095.16;5984833;29;20119;-75
2023/01/06 04:27:12;;;;;;;11.47;3.13;;;;;;;8.32;100.00;101089.75;5984242;29;20042;-77
2023/01/06 04:30:08;;;;;;;5.80;2.53;;;;;;;8.25;100.00;101070.03;5977046;29;20176;-76
2023/01/06 04:33:03;;;;;;;7.75;2.88;;;;;;;8.37;100.00;101084.06;5980392;28;20039;-76
2023/01/06 04:35:58;;;;;;;7.03;2.33;;;;;;;8.36;100.00;101074.50;5991101;28;20031;-77
2023/01/06 04:38:53;;;;;;;6.47;2.53;;;;;;;8.38;100.00;101067.28;5988007;29;20470;-76
2023/01/06 04:41:49;;;;;;;10.33;2.97;;;;;;;8.36;100.00;101067.41;5988071;29;20031;-75
2023/01/06 04:44:44;;;;;;;9.67;3.03;;;;;;;8.36;100.00;101064.78;5986570;29;20114;-76
2023/01/06 04:47:40;;;;;;;6.67;2.63;;;;;;;8.15;100.00;101026.81;5989933;28;20045;-76
2023/01/06 04:50:35;;;;;;;5.75;2.53;;;;;;;8.25;100.00;101048.91;5989832;28;20023;-76
2023/01/06 04:53:36;;;;;;;7.53;2.35;;;;;;;8.25;100.00;101046.25;5992263;28;20050;-76
2023/01/06 04:56:31;;;;;;;5.32;2.25;;;;;;;8.43;100.00;101070.38;5988430;29;20043;-76
2023/01/06 04:59:26;;;;;;;8.05;2.40;;;;;;;8.32;100.00;101044.81;5987039;29;20046;-76
2023/01/06 05:02:22;;;;;;;4.57;2.30;;;;;;;8.45;100.00;101060.56;5984957;29;20463;-76
2023/01/06 05:05:17;;;;;;;5.17;2.03;;;;;;;8.43;100.00;101051.88;5984882;28;20036;-76
2023/01/06 05:08:12;;;;;;;5.10;2.23;;;;;;;8.44;100.00;101052.72;5988542;28;20043;-74
2023/01/06 05:11:13;;;;;;;4.50;1.87;;;;;;;8.42;100.00;101050.22;5985174;28;20042;-75
2023/01/06 05:14:08;;;;;;;5.80;2.10;;;;;;;8.35;100.00;101028.72;5983880;29;20442;-76
2023/01/06 05:17:03;;;;;;;3.13;1.77;;;;;;;8.43;100.00;101035.19;5983839;29;20038;-77
2023/01/06 05:19:59;;;;;;;6.60;1.70;;;;;;;8.47;100.00;101047.19;5983614;28;20039;-76
2023/01/06 05:22:54;;;;;;;4.17;2.03;;;;;;;8.50;100.00;101053.09;5984379;28;20098;-78
2023/01/06 05:25:51;;;;;;;5.03;1.50;;;;;;;8.51;100.00;101043.31;5983162;28;20039;-77
2023/01/06 05:28:46;;;;;;;4.13;1.35;;;;;;;8.48;100.00;101033.03;5984409;29;20441;-76
2023/01/06 05:31:42;;;;;;;5.15;1.63;;;;;;;8.51;100.00;101024.81;5984235;29;20039;-77
2023/01/06 05:34:37;;;;;;;2.42;1.20;;;;;;;8.51;100.00;101036.25;5982474;29;20035;-77
2023/01/06 05:37:34;;;;;;;5.97;1.63;;;;;;;8.61;100.00;101044.28;5983776;29;20474;-76
2023/01/06 05:40:29;;;;;;;4.32;2.10;;;;;;;8.51;100.00;101007.19;5989970;28;20031;-77
2023/01/06 05:43:25;;;;;;;3.65;1.42;;;;;;;8.58;100.00;101018.09;5984334;28;20043;-75
2023/01/06 05:46:20;;;;;;;3.78;1.55;;;;;;;8.62;100.00;101027.44;5986430;28;20039;-77
2023/01/06 05:49:16;;;;;;;3.03;1.20;;;;;;;8.62;100.00;101024.78;5984237;29;20038;-77
2023/01/06 05:52:11;;;;;;;3.73;1.43;;;;;;;8.63;100.00;101021.19;5985076;29;20047;-75
2023/01/06 05:55:07;;;;;;;4.97;1.90;;;;;;;8.64;100.00;101026.34;5985920;28;20468;-76
2023/01/06 05:58:02;;;;;;;3.72;1.23;;;;;;;8.58;100.00;101016.28;5985013;28;20039;-75
2023/01/06 06:00:58;;;;;;;4.37;2.27;;;;;;;8.59;100.00;101014.50;5985389;28;20631;-76
2023/01/06 06:03:54;;;;;;;2.17;1.30;;;;;;;8.57;100.00;101005.84;5984597;29;20278;-76
2023/01/06 06:06:49;;;;;;;5.88;1.50;;;;;;;8.61;100.00;101028.41;5987138;29;20064;-77
2023/01/06 06:09:44;;;;;;;3.30;1.30;;;;;;;8.56;100.00;101020.03;5986803;29;20059;-77
2023/01/06 06:12:39;;;;;;;5.93;1.43;;;;;;;8.56;100.00;100999.69;5984657;29;20043;-76
2023/01/06 06:15:35;;;;;;;4.53;1.60;;;;;;;8.55;100.00;101003.31;5970877;29;20104;-76
2023/01/06 06:18:30;;;;;;;6.13;1.23;;;;;;;8.62;100.00;101025.63;5986571;28;20042;-76
2023/01/06 06:21:27;;;;;;;3.00;1.23;;;;;;;8.50;100.00;100999.38;5987253;28;20502;-76
2023/01/06 06:24:22;;;;;;;3.13;0.90;;;;;;;8.57;100.00;101005.84;5986764;29;20123;-75
2023/01/06 06:27:18;;;;;;;4.53;1.17;;;;;;;8.63;100.00;101024.69;5971514;29;20027;-76
2023/01/06 06:30:15;;;;;;;4.63;1.30;;;;;;;8.62;100.00;101007.13;5973457;29;20031;-76
2023/01/06 06:33:10;;;;;;;2.42;0.70;;;;;;;8.67;100.00;101010.22;5991156;28;20432;-75
2023/01/06 06:36:14;;;;;;;4.93;1.20;;;;;;;8.61;100.00;100986.13;5992075;29;20039;-75
2023/01/06 06:39:09;;;;;;;5.20;1.30;;;;;;;8.62;100.00;100983.34;5990460;29;20507;-76
2023/01/06 06:42:04;;;;;;;2.27;1.07;;;;;;;8.63;100.00;100979.75;5991319;29;20054;-76
2023/01/06 06:45:00;;;;;;;2.77;1.10;;;;;;;8.65;100.00;100988.38;5993913;29;20027;-74
2023/01/06 06:47:55;;;;;;;2.47;0.93;;;;;;;8.64;100.00;100991.16;5992866;28;20091;-75
2023/01/06 06:51:07;;;;;;;4.53;1.07;;;;;;;8.68;100.00;100997.84;6008961;28;20039;-73
2023/01/06 06:54:03;;;;;;;1.67;0.88;;;;;;;8.63;100.00;100978.91;5991427;28;20039;-76
2023/01/06 06:56:58;;;;;;;4.50;1.40;;;;;;;8.65;100.00;100980.44;5992719;28;20031;-74
2023/01/06 06:59:53;;;;;;;3.60;1.13;;;;;;;8.66;100.00;100974.22;5994653;29;20046;-74
2023/01/06 07:02:49;;;;;;;2.40;1.00;;;;;;;8.73;100.00;100990.38;5993329;29;20087;-74
2023/01/06 07:05:45;;;;;;;3.05;1.30;;;;;;;8.68;100.00;100971.41;5992422;28;20035;-74
2023/01/06 07:08:44;;;;;;;1.98;1.00;;;;;;;8.75;100.00;100967.31;5997304;28;20027;-75
2023/01/06 07:11:40;;;;;;;3.50;1.00;;;;;;;8.81;100.00;100972.06;5991711;29;20039;-74
2023/01/06 07:14:35;;;;;;;2.23;1.00;;;;;;;8.83;100.00;100970.97;5989794;29;20062;-75
2023/01/06 07:17:30;;;;;;;2.27;1.10;;;;;;;8.85;100.00;100962.94;5993796;29;20482;-74
2023/01/06 07:20:26;;;;;;;2.77;0.80;;;;;;;8.81;100.00;100972.06;5989015;28;20610;-76
2023/01/06 07:23:22;;;;;;;4.77;1.00;;;;;;;8.81;100.00;100956.22;5985764;28;20035;-74
2023/01/06 07:26:17;;;;;;;2.90;1.30;;;;;;;8.95;100.00;100959.38;5985973;28;20122;-76
2023/01/06 07:29:12;;;;;;;2.67;0.80;;;;;;;8.91;100.00;100947.38;5971763;28;20093;-75
2023/01/06 07:32:08;;;;;;;2.13;1.00;;;;;;;8.97;99.86;100951.31;5986437;28;20351;-75
2023/01/06 07:35:04;;;;;;;3.47;1.00;;;;;;;8.98;99.52;100943.25;5994745;28;20034;-74
2023/01/06 07:38:04;;;;;;;6.25;1.50;;;;;;;9.03;99.18;100952.59;5981245;28;20041;-75
2023/01/06 07:41:00;;;;;;;2.72;0.88;;;;;;;9.09;99.32;100962.66;5985547;28;20050;-75
2023/01/06 07:43:55;;;;;;;3.20;1.05;;;;;;;9.03;99.09;100956.06;5995937;28;20039;-74
2023/01/06 07:46:50;;;;;;;7.53;1.20;;;;;;;8.98;99.25;100963.56;5986552;28;20054;-74
2023/01/06 07:49:45;;;;;;;2.90;1.10;;;;;;;9.08;99.22;100975.03;5998378;28;20043;-73
2023/01/06 07:52:41;;;;;;;3.37;1.10;;;;;;;9.01;98.97;100957.19;5989646;28;20035;-73
2023/01/06 07:55:36;;;;;;;3.53;1.10;;;;;;;8.99;98.71;100941.44;5985592;28;20039;-75
2023/01/06 07:58:31;;;;;;;3.30;1.10;;;;;;;9.10;98.21;100949.31;5984881;28;20118;-74
2023/01/06 08:01:27;;;;;;;4.17;1.43;;;;;;;9.00;98.26;100929.88;5989283;28;20035;-77
2023/01/06 08:04:22;;;;;;;2.77;1.30;;;;;;;9.02;98.32;100943.84;5991497;28;20027;-75
2023/01/06 08:07:17;;;;;;;4.53;1.00;;;;;;;8.99;98.33;100952.03;5984884;28;20039;-76
2023/01/06 08:10:12;;;;;;;1.57;0.77;;;;;;;9.11;96.79;100950.13;5981021;28;20116;-76
2023/01/06 08:13:08;;;;;;;4.50;0.93;;;;;;;9.24;95.38;100951.59;5986166;28;20032;-74
2023/01/06 08:16:05;;;;;;;3.58;0.95;;;;;;;9.28;93.71;100944.25;5991801;28;20390;-77
2023/01/06 08:19:03;;;;;;;4.55;1.33;;;;;;;9.30;92.75;100947.59;5985864;28;20049;-75
2023/01/06 08:21:58;;;;;;;4.18;1.48;;;;;;;9.50;90.97;100950.19;5987204;28;20038;-74
2023/01/06 08:24:53;;;;;;;5.77;1.10;;;;;;;9.46;90.91;100932.06;5981049;28;20043;-75
2023/01/06 08:27:48;;;;;;;3.73;1.00;;;;;;;9.57;90.35;100955.78;5980305;28;20043;-75
2023/01/06 08:30:44;;;;;;;3.30;1.00;;;;;;;9.65;89.68;100963.09;5980051;29;20566;-75
2023/01/06 08:33:39;;;;;;;3.23;0.90;;;;;;;9.59;89.91;100959.97;5978918;28;20050;-77
2023/01/06 08:36:34;;;;;;;2.97;1.20;;;;;;;9.64;88.86;100974.63;5979368;28;20043;-76
2023/01/06 08:39:30;;;;;;;2.40;1.10;;;;;;;9.73;88.31;100973.84;5979325;29;20502;-75
2023/01/06 08:42:25;;;;;;;2.87;1.30;;;;;;;9.60;89.17;100958.16;5978981;29;20035;-75
2023/01/06 08:45:20;;;;;;;1.97;1.07;;;;;;;9.48;89.32;100940.72;5978853;28;20053;-74
2023/01/06 08:48:16;;;;;;;7.07;1.53;;;;;;;9.58;89.05;100966.25;5980807;28;20035;-75
2023/01/06 08:51:15;;;;;;;2.03;1.13;;;;;;;9.56;89.04;100960.25;5978977;28;20098;-76
2023/01/06 08:54:10;;;;;;;5.85;1.00;;;;;;;9.47;89.71;100936.38;5978260;29;20032;-75
2023/01/06 08:57:07;;;;;;;2.93;1.10;;;;;;;9.48;89.21;100946.81;5978812;28;20051;-75
2023/01/06 09:00:05;;;;;;;2.90;1.20;;;;;;;9.59;88.67;100945.91;5978790;28;20502;-73
2023/01/06 09:03:00;;;;;;;1.98;1.00;;;;;;;9.70;88.62;100969.66;5977585;29;20113;-76
2023/01/06 09:05:56;;;;;;;2.37;1.20;;;;;;;9.65;88.54;100933.97;5979766;29;20501;-76
2023/01/06 09:08:52;;;;;;;2.20;0.75;;;;;;;9.75;87.59;100950.69;5979277;29;20262;-77
2023/01/06 09:11:48;;;;;;;5.38;1.10;;;;;;;10.03;86.16;100960.50;5978608;29;20030;-75
2023/01/06 09:15:08;;;;;;;3.10;1.10;;;;;;;9.95;87.03;100963.00;5971617;29;20034;-75
2023/01/06 09:18:08;;;;;;;2.42;0.98;;;;;;;9.96;87.11;100962.88;5972114;29;20430;-76
2023/01/06 09:21:04;;;;;;;1.67;0.88;;;;;;;10.00;86.84;100953.69;5988980;28;20034;-73
2023/01/06 09:23:59;;;;;;;4.50;1.52;;;;;;;10.17;85.92;100962.81;5993344;28;20066;-74
2023/01/06 09:26:55;;;;;;;2.77;0.90;;;;;;;10.15;86.30;100959.47;5983117;29;20035;-76
2023/01/06 09:29:50;;;;;;;2.27;1.20;;;;;;;10.23;85.46;100972.88;5982966;29;20282;-76
2023/01/06 09:32:45;;;;;;;2.73;0.87;;;;;;;10.31;85.20;100964.22;5965190;29;20069;-73
2023/01/06 09:35:43;;;;;;;4.13;0.97;;;;;;;10.23;85.52;100959.63;5982965;29;20033;-77
2023/01/06 09:38:38;;;;;;;3.22;0.90;;;;;;;10.17;85.85;100949.56;5985610;28;20061;-77
2023/01/06 09:41:40;;;;;;;1.80;0.90;;;;;;;10.11;86.30;100955.38;5985998;29;20035;-75
2023/01/06 09:44:57;;;;;;;1.63;0.70;;;;;;;10.22;87.01;100963.22;5984153;29;20209;-75
2023/01/06 09:47:56;;;;;;;2.53;0.65;;;;;;;10.09;87.92;100966.13;5964984;29;20129;-77
2023/01/06 09:50:59;;;;;;;2.70;0.93;;;;;;;10.03;88.27;100960.50;5965055;29;20035;-75
2023/01/06 09:54:04;;;;;;;1.35;0.70;;;;;;;10.03;88.29;100958.72;5966557;29;20035;-74
2023/01/06 09:57:13;;;;;;;2.42;1.00;;;;;;;9.97;87.70;100947.84;5965736;29;20046;-76
2023/01/06 10:00:37;;;;;;;2.92;1.17;;;;;;;10.06;88.13;100969.03;5966376;29;20039;-75
2023/01/06 10:03:33;;;;;;;2.80;0.77;;;;;;;9.95;89.59;100960.34;5964543;29;20094;-75
2023/01/06 10:06:32;;;;;;;4.38;0.70;;;;;;;9.76;90.08;100944.41;5980698;29;20439;-75
2023/01/06 10:09:49;;;;;;;1.95;0.90;;;;;;;9.80;91.54;100957.28;5982072;29;20566;-73
2023/01/06 10:13:11;;;;;;;1.58;0.88;;;;;;;9.81;91.41;100963.41;5964722;29;20039;-75
2023/01/06 10:16:29;;;;;;;2.55;1.00;;;;;;;9.80;91.08;100938.72;5965605;29;20028;-75
2023/01/06 10:19:49;;;;;;;20.73;6.45;;;;;;;10.01;90.44;100955.38;5982712;28;20066;-74
2023/01/06 10:23:00;;;;;;;5.43;2.05;;;;;;;10.06;90.12;100952.28;5982090;29;20039;-73
2023/01/06 10:26:10;;;;;;;6.00;1.35;;;;;;;9.96;91.98;100946.16;5982495;29;20035;-76
2023/01/06 10:29:12;;;;;;;2.22;1.10;;;;;;;9.89;92.96;100950.31;5965242;29;20108;-75
2023/01/06 10:32:14;;;;;;;3.83;1.75;;;;;;;9.87;92.76;100952.25;5982134;28;20110;-75
2023/01/06 10:35:14;;;;;;;5.72;1.38;;;;;;;9.97;92.56;100955.78;5983181;29;20113;-74
2023/01/06 10:38:11;;;;;;;10.00;3.38;;;;;;;9.91;92.75;100946.56;5964925;29;20042;-75
2023/01/06 10:41:36;;;;;;;5.53;1.73;;;;;;;9.95;93.66;100957.72;5983092;28;20042;-74
2023/01/06 10:44:32;;;;;;;8.65;3.17;;;;;;;9.95;94.39;100963.00;5967349;28;20035;-75
2023/01/06 10:47:29;;;;;;;6.43;3.27;;;;;;;9.85;94.88;100933.03;5997979;28;20493;-75
2023/01/06 10:50:25;;;;;;;3.40;1.10;;;;;;;9.93;95.86;100943.78;5973553;29;20023;-76
2023/01/06 10:53:20;;;;;;;1.23;0.65;;;;;;;9.86;96.38;100935.56;5981682;29;20587;-75
2023/01/06 10:56:16;;;;;;;1.50;1.10;;;;;;;9.96;96.21;100949.66;5983390;29;20096;-74
2023/01/06 10:59:11;;;;;;;2.78;1.27;;;;;;;10.03;95.89;100944.63;5994969;28;20512;-74
2023/01/06 11:02:21;;;;;;;3.83;1.52;;;;;;;9.99;95.98;100948.53;5986018;28;20057;-74
2023/01/06 11:05:19;;;;;;;3.83;1.38;;;;;;;9.85;98.11;100944.47;5982096;28;20110;-76
2023/01/06 11:08:14;;;;;;;1.50;1.00;;;;;;;9.65;99.54;100941.91;5997503;28;20083;-75
2023/01/06 11:11:14;;;;;;;3.15;1.58;;;;;;;9.59;100.00;100949.38;5961960;29;20035;-74
2023/01/06 11:14:16;;;;;;;2.35;1.33;;;;;;;9.48;100.00;100949.47;5962801;29;20027;-74
2023/01/06 11:17:14;;;;;;;3.42;1.35;;;;;;;9.46;100.00;100954.06;5980528;29;20043;-73
2023/01/06 11:20:12;;;;;;;5.20;2.40;;;;;;;9.48;100.00;100957.41;5980512;28;20364;-74
2023/01/06 11:23:19;;;;;;;2.95;1.60;;;;;;;9.47;100.00;100960.22;5979857;29;20035;-74
2023/01/06 11:26:18;;;;;;;4.63;1.23;;;;;;;9.50;100.00;100962.59;5980736;29;20074;-75
2023/01/06 11:29:32;;;;;;;3.20;1.38;;;;;;;9.36;100.00;100942.63;5979478;29;20039;-74
2023/01/06 11:32:28;;;;;;;3.55;1.20;;;;;;;9.47;100.00;100958.41;5979820;29;20115;-73
2023/01/06 11:35:25;;;;;;;5.50;2.25;;;;;;;9.43;100.00;100950.88;5980307;29;20031;-75
2023/01/06 11:38:21;;;;;;;4.03;1.70;;;;;;;9.42;100.00;100941.25;5962083;29;20037;-75
2023/01/06 11:41:31;;;;;;;2.72;1.50;;;;;;;9.41;100.00;100937.75;5976240;28;20047;-75
2023/01/06 11:44:35;;;;;;;2.60;1.50;;;;;;;9.49;100.00;100927.34;5975267;28;20053;-74
2023/01/06 11:47:30;;;;;;;2.90;1.40;;;;;;;9.76;100.00;100947.91;5959412;29;20098;-74
2023/01/06 11:50:26;;;;;;;3.77;1.27;;;;;;;9.92;100.00;100939.47;5977023;29;20118;-74
2023/01/06 11:53:23;;;;;;;2.13;1.20;;;;;;;10.09;100.00;100946.72;5975883;29;20326;-74
2023/01/06 11:56:18;;;;;;;1.58;1.13;;;;;;;10.03;100.00;100937.50;5976681;29;20267;-75
2023/01/06 11:59:14;;;;;;;2.57;1.10;;;;;;;10.05;100.00;100937.41;5971899;29;20098;-76
2023/01/06 12:02:13;;;;;;;1.98;1.20;;;;;;;10.12;100.00;100949.09;5977294;29;20471;-76
2023/01/06 12:05:17;;;;;;;1.80;1.40;;;;;;;10.18;100.00;100945.09;5981275;29;20394;-75
2023/01/06 12:08:18;;;;;;;3.25;1.48;;;;;;;10.34;100.00;100962.13;5979402;29;20031;-76
2023/01/06 12:11:24;;;;;;;1.77;1.27;;;;;;;10.34;100.00;100934.78;5961125;28;20372;-77
2023/01/06 12:14:26;;;;;;;3.75;1.50;;;;;;;10.47;99.24;100944.13;5963062;29;20071;-74
2023/01/06 12:17:37;;;;;;;1.85;1.35;;;;;;;10.58;98.46;100959.91;5975594;29;20031;-75
2023/01/06 12:20:35;;;;;;;1.85;1.13;;;;;;;10.58;97.93;100962.56;5960955;29;20471;-74
2023/01/06 12:23:33;;;;;;;2.75;1.60;;;;;;;10.49;97.89;100950.13;5961687;29;20118;-75
2023/01/06 12:26:29;;;;;;;4.28;0.93;;;;;;;10.61;97.61;100954.34;5974154;29;20043;-77
2023/01/06 12:29:24;;;;;;;1.63;1.10;;;;;;;10.65;96.69;100958.38;5953730;29;20610;-74
2023/01/06 12:32:22;;;;;;;2.70;1.10;;;;;;;10.52;96.12;100943.72;5959496;29;20050;-76
2023/01/06 12:35:20;;;;;;;1.90;1.20;;;;;;;10.52;96.67;100959.63;5979357;29;20122;-76
2023/01/06 12:38:38;;;;;;;1.65;1.30;;;;;;;10.54;97.05;100979.75;5960799;29;20039;-74
2023/01/06 12:41:40;;;;;;;1.65;1.10;;;;;;;10.46;97.65;100976.91;5965400;29;20358;-76
2023/01/06 12:44:45;;;;;;;1.58;1.20;;;;;;;10.30;97.22;100950.13;5979682;29;20039;-76
2023/01/06 12:47:50;;;;;;;1.83;1.10;;;;;;;10.44;96.96;100970.09;5963881;29;20035;-75
2023/01/06 12:50:50;;;;;;;1.67;1.17;;;;;;;10.63;96.04;100993.97;5987303;28;20043;-74
2023/01/06 12:53:52;;;;;;;2.15;1.50;;;;;;;10.63;96.20;100981.53;5968969;29;20046;-75
2023/01/06 12:57:25;;;;;;;2.20;1.30;;;;;;;10.81;95.82;100992.31;5987195;28;20118;-76
2023/01/06 13:00:33;;;;;;;2.00;1.30;;;;;;;10.74;95.87;100986.72;5989048;29;20031;-75
2023/01/06 13:04:06;;;;;;;1.60;1.30;;;;;;;10.83;94.68;100997.44;5988898;29;20479;-75
2023/01/06 13:07:09;;;;;;;2.42;1.17;;;;;;;10.81;94.35;100996.75;5940234;29;20455;-76
2023/01/06 13:10:13;;;;;;;2.08;1.40;;;;;;;10.84;94.44;101001.78;5932292;29;20154;-76
2023/01/06 13:13:30;;;;;;;1.90;1.13;;;;;;;10.74;94.32;100988.50;5992201;29;20768;-75
2023/01/06 13:16:35;;;;;;;1.60;1.02;;;;;;;10.66;93.47;100989.22;5981196;28;20043;-76
2023/01/06 13:19:45;;;;;;;2.55;1.20;;;;;;;10.77;91.58;100986.44;5969725;28;20059;-75
2023/01/06 13:23:09;;;;;;;2.83;1.40;;;;;;;10.87;90.12;100982.94;5971070;29;20121;-78
2023/01/06 13:26:35;;;;;;;2.83;1.48;;;;;;;10.80;88.30;100995.91;5953535;29;20059;-75
2023/01/06 13:29:43;;;;;;;2.30;1.20;;;;;;;10.76;88.51;101002.50;5990538;29;20039;-77
2023/01/06 13:32:51;;;;;;;1.52;1.30;;;;;;;10.64;88.54;100975.28;5992444;29;20035;-74
2023/01/06 13:35:57;;;;;;;2.28;1.20;;;;;;;10.72;88.26;101015.19;5972755;29;20031;-77
2023/01/06 13:38:59;;;;;;;2.50;1.23;;;;;;;10.60;88.08;101003.03;5971309;29;20046;-75
2023/01/06 13:41:56;;;;;;;2.70;1.42;;;;;;;10.62;87.90;101002.91;5971366;29;20035;-76
2023/01/06 13:44:51;;;;;;;2.38;1.10;;;;;;;10.56;88.57;101014.91;5989441;28;20497;-76
2023/01/06 13:47:47;;;;;;;2.13;1.33;;;;;;;10.53;89.59;101020.47;5989340;29;20031;-77
2023/01/06 13:50:43;;;;;;;2.15;1.20;;;;;;;10.50;89.97;101026.06;5972979;29;20498;-76
2023/01/06 13:53:41;;;;;;;1.88;1.30;;;;;;;10.53;89.72;101028.44;5973306;29;20078;-76
2023/01/06 13:56:37;;;;;;;2.25;1.25;;;;;;;10.40;89.61;101009.31;5992678;29;20035;-77
2023/01/06 13:59:49;;;;;;;2.15;1.38;;;;;;;10.35;89.80;101019.50;5992519;29;20043;-76
2023/01/06 14:02:44;;;;;;;3.08;1.35;;;;;;;10.30;90.06;101023.53;5991951;29;20033;-76
2023/01/06 14:05:39;;;;;;;2.03;1.30;;;;;;;10.13;90.19;101017.91;5992993;28;20031;-76